Pagina principală
METAR-TAF:

METAR-TAF

Aeroporturi :

Ciudad de Panamá, Panama

Latitudine: 08-59N, longitudine: 079-31W, elevație: 13 m

Observații meteo curente

Raportul a fost făcut în urmă cu 44 de minute, la 04:00 UTC
Vânt 7 kt de la Nord/Nord-vest
Temperatură 27°C
Umiditate 74%
Presiune 1012 hPa

METAR: MPMG 140400Z AUTO 33007KT //// R01///// // NCD 27/22 Q1012

Ora: 23:44 (04:44 UTC)

Prognoză

Prognoză valabilă de la 13 ora 17 UTC la 14 ora 00 UTC
Vânt 7 kt de la Nord/Nord-vest
Vizibilitate de 10 km sau mai mult
Nori împrăștiați la o înălțime de 1800 picior
Temporar
de la 13 ora 18 UTC la 13 ora 22 UTC
Vânt 17 kt de la Nord

TAF: MPMG 131700 1318/1406 33007KT 9999 SCT018 TEMPO 1318/1322 35017KT

Observații și prognoze meteo pentru peste 4.000 de aeroporturi (rapoarte METAR și TAF).

Stațiile disponibile sunt reprezentate pe hartă prin puncte galbene și roșii.

Țineți indicatorul mouse-ului pe punctul dorit pentru a vedea denumirea stației.

Apoi, faceți clic pentru a vedea observațiile și prognozele meteorologice.

Pentru a schimba harta: Pentru mărire, faceți clic pe butoanele verzi cu cruce neagră; pentru micșorare, pe butonul verde cu o liniuță; pentru hărți învecinate, pe săgețile verzi.


METAR-TAF: